JZA0265 CYLW-CYVR
Flight info
| Callsign | JZA0265 |
|---|---|
| Flight time | 0h 41m |
| Altitude | 26000 |
| Route | MRYT6 MERYT DCT BOOTH CANUC6 |
| Aircraft | B737/M-SDE2E3FGHIRWXY/LB1 |
Departure
| Time | 2026-05-07 03:15 |
|---|---|
| Airport | Kelowna International Airport (CYLW) |
Arrival
| Time | 2026-05-07 03:56 |
|---|---|
| Airport | Vancouver International Airport (CYVR) |
| Time | Latitude | Longitude | Altitude | Speed | Heading |
|---|---|---|---|---|---|
| 2026-05-07 02:38 | 49.95062 | -119.38011 | 1419 ft | 0 kts | 311° |
| 2026-05-07 03:07 | 49.95052 | -119.37987 | 1419 ft | 3 kts | 275° |
| 2026-05-07 03:07 | 49.95048 | -119.37955 | 1419 ft | 3 kts | 292° |
| 2026-05-07 03:07 | 49.95036 | -119.37920 | 1419 ft | 3 kts | 313° |
| 2026-05-07 03:07 | 49.95016 | -119.37899 | 1419 ft | 3 kts | 352° |
| 2026-05-07 03:08 | 49.95007 | -119.37897 | 1419 ft | 0 kts | 355° |
| 2026-05-07 03:10 | 49.95013 | -119.37898 | 1419 ft | 4 kts | 355° |
| 2026-05-07 03:10 | 49.95059 | -119.37905 | 1419 ft | 9 kts | 353° |
| 2026-05-07 03:10 | 49.95137 | -119.37903 | 1419 ft | 10 kts | 16° |
| 2026-05-07 03:10 | 49.95183 | -119.37937 | 1421 ft | 11 kts | 335° |
| 2026-05-07 03:11 | 49.95266 | -119.37953 | 1421 ft | 13 kts | 356° |
| 2026-05-07 03:11 | 49.95343 | -119.37943 | 1418 ft | 3 kts | 52° |
| 2026-05-07 03:11 | 49.95362 | -119.37897 | 1423 ft | 7 kts | 21° |
| 2026-05-07 03:11 | 49.95446 | -119.37907 | 1418 ft | 15 kts | 356° |
| 2026-05-07 03:12 | 49.95581 | -119.37920 | 1418 ft | 24 kts | 354° |
| 2026-05-07 03:12 | 49.95771 | -119.37945 | 1419 ft | 30 kts | 355° |
| 2026-05-07 03:12 | 49.95979 | -119.37974 | 1419 ft | 30 kts | 355° |
| 2026-05-07 03:12 | 49.96188 | -119.38001 | 1419 ft | 30 kts | 355° |
| 2026-05-07 03:13 | 49.96393 | -119.38027 | 1420 ft | 29 kts | 354° |
| 2026-05-07 03:13 | 49.96568 | -119.38055 | 1418 ft | 9 kts | 352° |
| 2026-05-07 03:13 | 49.96609 | -119.37994 | 1420 ft | 10 kts | 73° |
| 2026-05-07 03:13 | 49.96590 | -119.37920 | 1420 ft | 7 kts | 176° |
| 2026-05-07 03:14 | 49.96519 | -119.37905 | 1416 ft | 21 kts | 171° |
| 2026-05-07 03:14 | 49.96126 | -119.37849 | 1420 ft | 92 kts | 174° |
| 2026-05-07 03:14 | 49.94144 | -119.37598 | 1710 ft | 175 kts | 173° |
| 2026-05-07 03:15 | 49.92847 | -119.37473 | 2064 ft | 198 kts | 178° |
| 2026-05-07 03:15 | 49.91449 | -119.37318 | 2616 ft | 209 kts | 176° |
| 2026-05-07 03:15 | 49.89944 | -119.37087 | 3172 ft | 223 kts | 180° |
| 2026-05-07 03:15 | 49.88452 | -119.37666 | 3883 ft | 233 kts | 218° |
| 2026-05-07 03:16 | 49.87493 | -119.39731 | 4447 ft | 251 kts | 253° |
| 2026-05-07 03:16 | 49.87549 | -119.42478 | 5405 ft | 252 kts | 283° |
| 2026-05-07 03:16 | 49.87568 | -119.45170 | 6569 ft | 260 kts | 255° |
| 2026-05-07 03:16 | 49.86533 | -119.47539 | 7414 ft | 275 kts | 225° |
| 2026-05-07 03:17 | 49.85119 | -119.49537 | 8226 ft | 283 kts | 228° |
| 2026-05-07 03:17 | 49.83720 | -119.51855 | 9086 ft | 289 kts | 232° |
| 2026-05-07 03:17 | 49.81228 | -119.56912 | 10663 ft | 304 kts | 238° |
| 2026-05-07 03:17 | 49.79470 | -119.60767 | 11110 ft | 336 kts | 239° |
| 2026-05-07 03:18 | 49.78467 | -119.64083 | 11533 ft | 345 kts | 261° |
| 2026-05-07 03:18 | 49.78425 | -119.67765 | 12315 ft | 343 kts | 282° |
| 2026-05-07 03:18 | 49.78897 | -119.71377 | 13286 ft | 344 kts | 283° |
| 2026-05-07 03:18 | 49.79387 | -119.75019 | 14165 ft | 348 kts | 283° |
| 2026-05-07 03:19 | 49.79881 | -119.78712 | 14944 ft | 353 kts | 283° |
| 2026-05-07 03:19 | 49.80375 | -119.82457 | 15774 ft | 356 kts | 283° |
| 2026-05-07 03:19 | 49.80858 | -119.86180 | 16621 ft | 359 kts | 283° |
| 2026-05-07 03:19 | 49.81347 | -119.89990 | 17444 ft | 363 kts | 282° |
| 2026-05-07 03:20 | 49.81836 | -119.93843 | 18289 ft | 366 kts | 282° |
| 2026-05-07 03:20 | 49.82323 | -119.97716 | 19085 ft | 366 kts | 283° |
| 2026-05-07 03:20 | 49.82808 | -120.01594 | 19847 ft | 368 kts | 283° |
| 2026-05-07 03:20 | 49.83296 | -120.05502 | 20511 ft | 371 kts | 282° |
| 2026-05-07 03:21 | 49.83784 | -120.09431 | 21191 ft | 373 kts | 283° |
| 2026-05-07 03:21 | 49.84275 | -120.13396 | 21872 ft | 375 kts | 283° |
| 2026-05-07 03:21 | 49.84767 | -120.17378 | 22609 ft | 377 kts | 283° |
| 2026-05-07 03:21 | 49.85253 | -120.21324 | 23265 ft | 379 kts | 283° |
| 2026-05-07 03:22 | 49.85746 | -120.25349 | 23873 ft | 381 kts | 283° |
| 2026-05-07 03:22 | 49.86241 | -120.29392 | 24482 ft | 382 kts | 283° |
| 2026-05-07 03:22 | 49.86731 | -120.33411 | 25264 ft | 377 kts | 283° |
| 2026-05-07 03:22 | 49.87215 | -120.37391 | 25800 ft | 375 kts | 283° |
| 2026-05-07 03:23 | 49.87694 | -120.41342 | 26115 ft | 373 kts | 283° |
| 2026-05-07 03:23 | 49.88175 | -120.45318 | 26137 ft | 376 kts | 283° |
| 2026-05-07 03:23 | 49.88655 | -120.49293 | 26139 ft | 374 kts | 283° |
| 2026-05-07 03:23 | 49.89130 | -120.53249 | 26143 ft | 373 kts | 283° |
| 2026-05-07 03:24 | 49.89598 | -120.57145 | 26141 ft | 372 kts | 284° |
| 2026-05-07 03:24 | 49.90070 | -120.61092 | 26140 ft | 372 kts | 283° |
| 2026-05-07 03:24 | 49.90540 | -120.65035 | 26138 ft | 372 kts | 283° |
| 2026-05-07 03:24 | 49.91009 | -120.68981 | 26153 ft | 372 kts | 283° |
| 2026-05-07 03:25 | 49.91478 | -120.72931 | 26156 ft | 372 kts | 283° |
| 2026-05-07 03:25 | 49.91946 | -120.76883 | 26157 ft | 373 kts | 283° |
| 2026-05-07 03:25 | 49.92414 | -120.80844 | 26130 ft | 373 kts | 283° |
| 2026-05-07 03:25 | 49.92880 | -120.84813 | 26138 ft | 374 kts | 283° |
| 2026-05-07 03:26 | 49.93343 | -120.88781 | 26132 ft | 374 kts | 283° |
| 2026-05-07 03:26 | 49.93565 | -120.92819 | 26144 ft | 380 kts | 271° |
| 2026-05-07 03:26 | 49.93204 | -120.96848 | 26157 ft | 385 kts | 262° |
| 2026-05-07 03:26 | 49.92408 | -121.00833 | 26117 ft | 392 kts | 252° |
| 2026-05-07 03:27 | 49.91104 | -121.04585 | 26166 ft | 396 kts | 246° |
| 2026-05-07 03:27 | 49.89691 | -121.08255 | 26169 ft | 396 kts | 245° |
| 2026-05-07 03:27 | 49.88243 | -121.11942 | 26073 ft | 403 kts | 245° |
| 2026-05-07 03:27 | 49.86793 | -121.15625 | 25895 ft | 395 kts | 245° |
| 2026-05-07 03:28 | 49.85384 | -121.19213 | 25636 ft | 384 kts | 245° |
| 2026-05-07 03:28 | 49.84014 | -121.22734 | 25431 ft | 381 kts | 245° |
| 2026-05-07 03:28 | 49.82653 | -121.26264 | 25191 ft | 383 kts | 245° |
| 2026-05-07 03:28 | 49.81292 | -121.29804 | 24953 ft | 382 kts | 245° |
| 2026-05-07 03:29 | 49.79938 | -121.33325 | 24733 ft | 381 kts | 245° |
| 2026-05-07 03:29 | 49.78602 | -121.36801 | 24507 ft | 381 kts | 245° |
| 2026-05-07 03:29 | 49.77244 | -121.40322 | 24239 ft | 380 kts | 245° |
| 2026-05-07 03:29 | 49.75895 | -121.43829 | 24037 ft | 379 kts | 245° |
| 2026-05-07 03:30 | 49.74543 | -121.47328 | 23797 ft | 379 kts | 244° |
| 2026-05-07 03:30 | 49.73192 | -121.50810 | 23606 ft | 379 kts | 244° |
| 2026-05-07 03:30 | 49.71834 | -121.54313 | 23325 ft | 379 kts | 244° |
| 2026-05-07 03:30 | 49.70480 | -121.57803 | 23060 ft | 378 kts | 244° |
| 2026-05-07 03:31 | 49.69129 | -121.61274 | 22800 ft | 377 kts | 244° |
| 2026-05-07 03:31 | 49.67778 | -121.64745 | 22543 ft | 376 kts | 244° |
| 2026-05-07 03:31 | 49.66460 | -121.68146 | 22299 ft | 373 kts | 244° |
| 2026-05-07 03:31 | 49.65121 | -121.71574 | 22036 ft | 373 kts | 244° |
| 2026-05-07 03:32 | 49.63784 | -121.74989 | 21764 ft | 371 kts | 244° |
| 2026-05-07 03:32 | 49.62456 | -121.78382 | 21506 ft | 369 kts | 244° |
| 2026-05-07 03:32 | 49.61130 | -121.81768 | 21272 ft | 368 kts | 244° |
| 2026-05-07 03:32 | 49.59809 | -121.85138 | 21010 ft | 366 kts | 243° |
| 2026-05-07 03:33 | 49.58500 | -121.88475 | 20720 ft | 361 kts | 243° |
| 2026-05-07 03:33 | 49.57198 | -121.91790 | 20490 ft | 362 kts | 243° |
| 2026-05-07 03:33 | 49.55894 | -121.95110 | 20260 ft | 363 kts | 243° |
| 2026-05-07 03:33 | 49.54606 | -121.98384 | 20024 ft | 361 kts | 243° |
| 2026-05-07 03:34 | 49.53305 | -122.01681 | 19784 ft | 360 kts | 243° |
| 2026-05-07 03:34 | 49.52004 | -122.04969 | 19535 ft | 359 kts | 243° |
| 2026-05-07 03:34 | 49.50707 | -122.08237 | 19304 ft | 357 kts | 243° |
| 2026-05-07 03:34 | 49.49433 | -122.11439 | 19044 ft | 345 kts | 243° |
| 2026-05-07 03:35 | 49.48291 | -122.14648 | 18378 ft | 340 kts | 249° |
| 2026-05-07 03:35 | 49.47476 | -122.18080 | 16937 ft | 347 kts | 259° |
| 2026-05-07 03:35 | 49.47157 | -122.21828 | 15293 ft | 361 kts | 272° |
| 2026-05-07 03:35 | 49.46933 | -122.25656 | 14509 ft | 358 kts | 254° |
| 2026-05-07 03:36 | 49.45696 | -122.28838 | 14298 ft | 345 kts | 227° |
| 2026-05-07 03:36 | 49.43829 | -122.31008 | 14104 ft | 337 kts | 218° |
| 2026-05-07 03:36 | 49.42042 | -122.33203 | 13817 ft | 320 kts | 227° |
| 2026-05-07 03:36 | 49.40515 | -122.35856 | 13500 ft | 303 kts | 236° |
| 2026-05-07 03:37 | 49.39291 | -122.38187 | 13279 ft | 300 kts | 234° |
| 2026-05-07 03:37 | 49.37991 | -122.40685 | 13019 ft | 299 kts | 236° |
| 2026-05-07 03:37 | 49.36749 | -122.43206 | 12681 ft | 293 kts | 236° |
| 2026-05-07 03:37 | 49.35548 | -122.45672 | 12288 ft | 284 kts | 238° |
| 2026-05-07 03:38 | 49.34444 | -122.48143 | 11730 ft | 277 kts | 240° |
| 2026-05-07 03:38 | 49.33406 | -122.50528 | 11522 ft | 258 kts | 240° |
| 2026-05-07 03:38 | 49.32446 | -122.52735 | 11226 ft | 243 kts | 240° |
| 2026-05-07 03:38 | 49.31529 | -122.54858 | 10660 ft | 242 kts | 240° |
| 2026-05-07 03:39 | 49.30625 | -122.56952 | 10413 ft | 226 kts | 240° |
| 2026-05-07 03:39 | 49.29792 | -122.58877 | 10274 ft | 208 kts | 241° |
| 2026-05-07 03:39 | 49.29020 | -122.60669 | 10022 ft | 199 kts | 241° |
| 2026-05-07 03:39 | 49.28250 | -122.62460 | 9484 ft | 203 kts | 240° |
| 2026-05-07 03:40 | 49.27469 | -122.64273 | 8954 ft | 206 kts | 239° |
| 2026-05-07 03:40 | 49.26664 | -122.66136 | 8442 ft | 214 kts | 239° |
| 2026-05-07 03:40 | 49.25813 | -122.68104 | 8144 ft | 231 kts | 239° |
| 2026-05-07 03:40 | 49.24877 | -122.70300 | 7940 ft | 254 kts | 243° |
| 2026-05-07 03:41 | 49.24418 | -122.72834 | 7644 ft | 243 kts | 269° |
| 2026-05-07 03:41 | 49.24565 | -122.75339 | 7403 ft | 232 kts | 279° |
| 2026-05-07 03:41 | 49.24855 | -122.77708 | 7077 ft | 227 kts | 281° |
| 2026-05-07 03:41 | 49.25157 | -122.80063 | 6701 ft | 224 kts | 281° |
| 2026-05-07 03:42 | 49.25445 | -122.82396 | 6326 ft | 222 kts | 281° |
| 2026-05-07 03:42 | 49.25725 | -122.84704 | 5935 ft | 221 kts | 281° |
| 2026-05-07 03:42 | 49.26001 | -122.87014 | 5550 ft | 220 kts | 281° |
| 2026-05-07 03:42 | 49.26269 | -122.89296 | 5209 ft | 215 kts | 280° |
| 2026-05-07 03:43 | 49.26528 | -122.91523 | 4828 ft | 209 kts | 280° |
| 2026-05-07 03:43 | 49.26780 | -122.93679 | 4437 ft | 203 kts | 280° |
| 2026-05-07 03:43 | 49.27019 | -122.95736 | 4052 ft | 199 kts | 280° |
| 2026-05-07 03:43 | 49.27245 | -122.97681 | 3679 ft | 196 kts | 280° |
| 2026-05-07 03:44 | 49.27480 | -122.99722 | 3291 ft | 193 kts | 279° |
| 2026-05-07 03:44 | 49.27711 | -123.01720 | 3029 ft | 184 kts | 279° |
| 2026-05-07 03:44 | 49.27922 | -123.03539 | 2992 ft | 167 kts | 278° |
| 2026-05-07 03:44 | 49.28126 | -123.05260 | 3001 ft | 163 kts | 278° |
| 2026-05-07 03:45 | 49.28329 | -123.06977 | 3024 ft | 165 kts | 278° |
| 2026-05-07 03:45 | 49.28535 | -123.08715 | 3020 ft | 166 kts | 279° |
| 2026-05-07 03:45 | 49.28740 | -123.10447 | 3010 ft | 166 kts | 278° |
| 2026-05-07 03:45 | 49.28945 | -123.12182 | 3004 ft | 165 kts | 279° |
| 2026-05-07 03:46 | 49.29146 | -123.13881 | 3009 ft | 164 kts | 279° |
| 2026-05-07 03:46 | 49.29341 | -123.15535 | 3008 ft | 163 kts | 278° |
| 2026-05-07 03:46 | 49.29542 | -123.17245 | 3013 ft | 163 kts | 279° |
| 2026-05-07 03:46 | 49.29742 | -123.18947 | 3020 ft | 161 kts | 279° |
| 2026-05-07 03:47 | 49.29940 | -123.20637 | 3007 ft | 161 kts | 279° |
| 2026-05-07 03:47 | 49.30136 | -123.22317 | 3008 ft | 159 kts | 279° |
| 2026-05-07 03:47 | 49.30331 | -123.23981 | 3006 ft | 158 kts | 279° |
| 2026-05-07 03:47 | 49.30523 | -123.25631 | 3002 ft | 157 kts | 278° |
| 2026-05-07 03:48 | 49.30704 | -123.27278 | 3001 ft | 157 kts | 278° |
| 2026-05-07 03:48 | 49.30881 | -123.28901 | 3006 ft | 156 kts | 278° |
| 2026-05-07 03:48 | 49.31061 | -123.30567 | 3010 ft | 157 kts | 278° |
| 2026-05-07 03:48 | 49.31236 | -123.32178 | 2997 ft | 153 kts | 278° |
| 2026-05-07 03:49 | 49.31408 | -123.33763 | 2996 ft | 150 kts | 278° |
| 2026-05-07 03:49 | 49.31577 | -123.35318 | 3022 ft | 150 kts | 278° |
| 2026-05-07 03:49 | 49.31748 | -123.36897 | 3014 ft | 149 kts | 278° |
| 2026-05-07 03:49 | 49.31917 | -123.38461 | 3003 ft | 148 kts | 278° |
| 2026-05-07 03:50 | 49.32037 | -123.40023 | 2988 ft | 147 kts | 262° |
| 2026-05-07 03:50 | 49.31515 | -123.41186 | 3009 ft | 144 kts | 203° |
| 2026-05-07 03:50 | 49.30494 | -123.41436 | 3026 ft | 152 kts | 189° |
| 2026-05-07 03:50 | 49.29466 | -123.41677 | 3007 ft | 151 kts | 191° |
| 2026-05-07 03:51 | 49.28433 | -123.41924 | 3003 ft | 150 kts | 190° |
| 2026-05-07 03:51 | 49.27404 | -123.42149 | 3004 ft | 150 kts | 186° |
| 2026-05-07 03:51 | 49.26367 | -123.42094 | 3011 ft | 150 kts | 172° |
| 2026-05-07 03:51 | 49.25370 | -123.41587 | 2921 ft | 153 kts | 153° |
| 2026-05-07 03:52 | 49.24509 | -123.40652 | 2795 ft | 152 kts | 137° |
| 2026-05-07 03:52 | 49.23822 | -123.39450 | 2604 ft | 149 kts | 125° |
| 2026-05-07 03:52 | 49.23280 | -123.38117 | 2435 ft | 147 kts | 122° |
| 2026-05-07 03:52 | 49.22787 | -123.36760 | 2250 ft | 146 kts | 112° |
| 2026-05-07 03:53 | 49.22454 | -123.35310 | 2058 ft | 143 kts | 106° |
| 2026-05-07 03:53 | 49.22176 | -123.33839 | 1896 ft | 144 kts | 104° |
| 2026-05-07 03:53 | 49.21944 | -123.32343 | 1678 ft | 150 kts | 102° |
| 2026-05-07 03:53 | 49.21744 | -123.30766 | 1466 ft | 153 kts | 101° |
| 2026-05-07 03:54 | 49.21557 | -123.29165 | 1258 ft | 155 kts | 101° |
| 2026-05-07 03:54 | 49.21394 | -123.27535 | 1063 ft | 155 kts | 97° |
| 2026-05-07 03:54 | 49.21258 | -123.25940 | 787 ft | 149 kts | 100° |
| 2026-05-07 03:54 | 49.21078 | -123.24426 | 587 ft | 141 kts | 101° |
| 2026-05-07 03:55 | 49.20891 | -123.22975 | 390 ft | 138 kts | 101° |
| 2026-05-07 03:55 | 49.20708 | -123.21553 | 261 ft | 135 kts | 101° |
| 2026-05-07 03:55 | 49.20536 | -123.20175 | 103 ft | 129 kts | 101° |
| 2026-05-07 03:55 | 49.20376 | -123.18869 | 20 ft | 115 kts | 101° |
| 2026-05-07 03:56 | 49.20275 | -123.17858 | 13 ft | 81 kts | 97° |
| 2026-05-07 03:56 | 49.20194 | -123.17185 | 17 ft | 48 kts | 103° |
| 2026-05-07 03:56 | 49.20094 | -123.16873 | 16 ft | 19 kts | 124° |
| 2026-05-07 03:56 | 49.20018 | -123.16719 | 15 ft | 18 kts | 129° |
| 2026-05-07 03:57 | 49.19927 | -123.16627 | 15 ft | 10 kts | 191° |
| 2026-05-07 03:57 | 49.19917 | -123.16690 | 15 ft | 7 kts | 280° |
| 2026-05-07 03:57 | 49.19926 | -123.16774 | 15 ft | 12 kts | 279° |
| 2026-05-07 03:57 | 49.19945 | -123.16955 | 17 ft | 24 kts | 279° |
| 2026-05-07 03:58 | 49.19976 | -123.17268 | 16 ft | 33 kts | 278° |
| 2026-05-07 03:58 | 49.20018 | -123.17577 | 16 ft | 27 kts | 283° |